sensor_id;sensor_type;location;lat;lon;timestamp;P1;durP1;ratioP1;P2;durP2;ratioP2
43345;SDS011;28937;51.160;4.146;2023-07-13T00:01:11;4.20;;;1.35;;
43345;SDS011;28937;51.160;4.146;2023-07-13T00:03:38;4.65;;;1.50;;
43345;SDS011;28937;51.160;4.146;2023-07-13T00:06:06;6.53;;;1.23;;
43345;SDS011;28937;51.160;4.146;2023-07-13T00:08:32;4.03;;;1.02;;
43345;SDS011;28937;51.160;4.146;2023-07-13T00:10:58;4.40;;;1.13;;
43345;SDS011;28937;51.160;4.146;2023-07-13T00:13:27;4.63;;;1.10;;
43345;SDS011;28937;51.160;4.146;2023-07-13T00:15:54;6.28;;;1.25;;
43345;SDS011;28937;51.160;4.146;2023-07-13T00:18:21;7.22;;;1.67;;
43345;SDS011;28937;51.160;4.146;2023-07-13T00:20:47;7.18;;;1.95;;
43345;SDS011;28937;51.160;4.146;2023-07-13T00:23:13;6.90;;;1.48;;
43345;SDS011;28937;51.160;4.146;2023-07-13T00:25:39;5.40;;;1.25;;
43345;SDS011;28937;51.160;4.146;2023-07-13T00:28:05;5.25;;;1.30;;
43345;SDS011;28937;51.160;4.146;2023-07-13T00:30:30;8.48;;;1.80;;
43345;SDS011;28937;51.160;4.146;2023-07-13T00:32:56;3.83;;;1.25;;
43345;SDS011;28937;51.160;4.146;2023-07-13T00:35:22;8.45;;;1.40;;
43345;SDS011;28937;51.160;4.146;2023-07-13T00:37:48;4.28;;;0.90;;
43345;SDS011;28937;51.160;4.146;2023-07-13T00:40:14;4.50;;;1.27;;
43345;SDS011;28937;51.160;4.146;2023-07-13T00:42:40;7.30;;;1.63;;
43345;SDS011;28937;51.160;4.146;2023-07-13T00:47:52;3.78;;;1.25;;
43345;SDS011;28937;51.160;4.146;2023-07-13T00:50:19;7.80;;;1.80;;
43345;SDS011;28937;51.160;4.146;2023-07-13T00:52:46;8.05;;;1.77;;
43345;SDS011;28937;51.160;4.146;2023-07-13T00:55:14;7.47;;;1.52;;
43345;SDS011;28937;51.160;4.146;2023-07-13T00:57:42;5.05;;;1.77;;
43345;SDS011;28937;51.160;4.146;2023-07-13T01:00:08;5.35;;;1.98;;
43345;SDS011;28937;51.160;4.146;2023-07-13T01:02:38;4.88;;;1.60;;
43345;SDS011;28937;51.160;4.146;2023-07-13T01:05:12;8.73;;;1.80;;
43345;SDS011;28937;51.160;4.146;2023-07-13T01:07:39;6.88;;;1.45;;
43345;SDS011;28937;51.160;4.146;2023-07-13T01:10:07;9.23;;;2.35;;
43345;SDS011;28937;51.160;4.146;2023-07-13T01:12:33;4.40;;;1.25;;
43345;SDS011;28937;51.160;4.146;2023-07-13T01:14:59;7.32;;;1.40;;
43345;SDS011;28937;51.160;4.146;2023-07-13T01:17:27;6.63;;;1.80;;
43345;SDS011;28937;51.160;4.146;2023-07-13T01:19:53;9.00;;;1.75;;
43345;SDS011;28937;51.160;4.146;2023-07-13T01:22:19;4.43;;;1.45;;
43345;SDS011;28937;51.160;4.146;2023-07-13T01:24:50;5.47;;;1.48;;
43345;SDS011;28937;51.160;4.146;2023-07-13T01:27:17;5.50;;;1.65;;
43345;SDS011;28937;51.160;4.146;2023-07-13T01:29:48;5.93;;;1.55;;
43345;SDS011;28937;51.160;4.146;2023-07-13T01:32:19;5.78;;;1.75;;
43345;SDS011;28937;51.160;4.146;2023-07-13T01:34:49;5.30;;;1.70;;
43345;SDS011;28937;51.160;4.146;2023-07-13T01:37:16;5.55;;;1.48;;
43345;SDS011;28937;51.160;4.146;2023-07-13T01:39:42;8.93;;;1.85;;
43345;SDS011;28937;51.160;4.146;2023-07-13T01:42:07;5.60;;;1.52;;
43345;SDS011;28937;51.160;4.146;2023-07-13T01:44:33;5.80;;;1.50;;
43345;SDS011;28937;51.160;4.146;2023-07-13T01:47:00;7.43;;;2.15;;
43345;SDS011;28937;51.160;4.146;2023-07-13T01:49:27;6.78;;;1.65;;
43345;SDS011;28937;51.160;4.146;2023-07-13T01:51:53;7.50;;;2.17;;
43345;SDS011;28937;51.160;4.146;2023-07-13T01:54:18;7.28;;;1.70;;
43345;SDS011;28937;51.160;4.146;2023-07-13T01:56:44;6.75;;;1.60;;
43345;SDS011;28937;51.160;4.146;2023-07-13T01:59:09;6.95;;;1.63;;
43345;SDS011;28937;51.160;4.146;2023-07-13T02:01:35;7.00;;;1.67;;
43345;SDS011;28937;51.160;4.146;2023-07-13T02:04:01;6.00;;;1.77;;
43345;SDS011;28937;51.160;4.146;2023-07-13T02:06:27;6.25;;;1.63;;
43345;SDS011;28937;51.160;4.146;2023-07-13T02:08:54;12.02;;;2.40;;
43345;SDS011;28937;51.160;4.146;2023-07-13T02:11:20;6.85;;;1.98;;
43345;SDS011;28937;51.160;4.146;2023-07-13T02:13:45;8.00;;;2.13;;
43345;SDS011;28937;51.160;4.146;2023-07-13T02:16:11;9.45;;;2.00;;
43345;SDS011;28937;51.160;4.146;2023-07-13T02:18:36;6.00;;;1.67;;
43345;SDS011;28937;51.160;4.146;2023-07-13T02:21:02;9.65;;;2.17;;
43345;SDS011;28937;51.160;4.146;2023-07-13T02:23:28;6.95;;;2.40;;
43345;SDS011;28937;51.160;4.146;2023-07-13T02:25:54;6.13;;;1.75;;
43345;SDS011;28937;51.160;4.146;2023-07-13T02:28:21;8.45;;;2.00;;
43345;SDS011;28937;51.160;4.146;2023-07-13T02:30:46;5.68;;;1.77;;
43345;SDS011;28937;51.160;4.146;2023-07-13T02:33:12;8.98;;;2.40;;
43345;SDS011;28937;51.160;4.146;2023-07-13T02:35:38;7.72;;;2.35;;
43345;SDS011;28937;51.160;4.146;2023-07-13T02:38:03;9.38;;;2.35;;
43345;SDS011;28937;51.160;4.146;2023-07-13T02:40:29;5.47;;;1.65;;
43345;SDS011;28937;51.160;4.146;2023-07-13T02:42:58;7.80;;;2.50;;
43345;SDS011;28937;51.160;4.146;2023-07-13T02:45:23;6.18;;;2.00;;
43345;SDS011;28937;51.160;4.146;2023-07-13T02:47:49;7.18;;;1.80;;
43345;SDS011;28937;51.160;4.146;2023-07-13T02:50:15;6.95;;;2.22;;
43345;SDS011;28937;51.160;4.146;2023-07-13T02:52:40;5.93;;;1.92;;
43345;SDS011;28937;51.160;4.146;2023-07-13T02:55:06;6.63;;;1.95;;
43345;SDS011;28937;51.160;4.146;2023-07-13T02:57:31;6.78;;;2.13;;
43345;SDS011;28937;51.160;4.146;2023-07-13T02:59:57;7.70;;;2.05;;
43345;SDS011;28937;51.160;4.146;2023-07-13T03:02:24;7.25;;;2.20;;
43345;SDS011;28937;51.160;4.146;2023-07-13T03:04:50;8.60;;;2.40;;
43345;SDS011;28937;51.160;4.146;2023-07-13T03:07:15;6.97;;;1.80;;
43345;SDS011;28937;51.160;4.146;2023-07-13T03:09:41;7.38;;;2.17;;
43345;SDS011;28937;51.160;4.146;2023-07-13T03:12:06;6.47;;;1.65;;
43345;SDS011;28937;51.160;4.146;2023-07-13T03:14:32;7.72;;;2.13;;
43345;SDS011;28937;51.160;4.146;2023-07-13T03:16:58;6.20;;;1.92;;
43345;SDS011;28937;51.160;4.146;2023-07-13T03:19:23;7.47;;;2.33;;
43345;SDS011;28937;51.160;4.146;2023-07-13T03:21:49;7.15;;;2.63;;
43345;SDS011;28937;51.160;4.146;2023-07-13T03:24:15;6.13;;;2.10;;
43345;SDS011;28937;51.160;4.146;2023-07-13T03:26:40;8.25;;;2.20;;
43345;SDS011;28937;51.160;4.146;2023-07-13T03:29:06;8.88;;;2.30;;
43345;SDS011;28937;51.160;4.146;2023-07-13T03:31:33;10.85;;;2.05;;
43345;SDS011;28937;51.160;4.146;2023-07-13T03:34:00;8.60;;;2.45;;
43345;SDS011;28937;51.160;4.146;2023-07-13T03:36:26;7.25;;;1.77;;
43345;SDS011;28937;51.160;4.146;2023-07-13T03:38:55;8.02;;;2.20;;
43345;SDS011;28937;51.160;4.146;2023-07-13T03:41:24;9.60;;;2.72;;
43345;SDS011;28937;51.160;4.146;2023-07-13T03:43:50;7.90;;;2.03;;
43345;SDS011;28937;51.160;4.146;2023-07-13T03:46:16;7.53;;;2.55;;
43345;SDS011;28937;51.160;4.146;2023-07-13T03:48:44;11.10;;;2.38;;
43345;SDS011;28937;51.160;4.146;2023-07-13T03:51:11;5.40;;;2.08;;
43345;SDS011;28937;51.160;4.146;2023-07-13T03:53:39;6.05;;;2.00;;
43345;SDS011;28937;51.160;4.146;2023-07-13T03:56:06;8.52;;;1.77;;
43345;SDS011;28937;51.160;4.146;2023-07-13T03:58:36;9.85;;;3.25;;
43345;SDS011;28937;51.160;4.146;2023-07-13T04:01:04;10.93;;;3.20;;
43345;SDS011;28937;51.160;4.146;2023-07-13T04:03:32;7.13;;;2.13;;
43345;SDS011;28937;51.160;4.146;2023-07-13T04:05:58;10.90;;;2.40;;
43345;SDS011;28937;51.160;4.146;2023-07-13T04:08:28;7.90;;;1.95;;
43345;SDS011;28937;51.160;4.146;2023-07-13T04:10:56;8.77;;;2.38;;
43345;SDS011;28937;51.160;4.146;2023-07-13T04:13:23;5.85;;;1.48;;
43345;SDS011;28937;51.160;4.146;2023-07-13T04:15:49;8.43;;;2.13;;
43345;SDS011;28937;51.160;4.146;2023-07-13T04:18:15;10.80;;;2.90;;
43345;SDS011;28937;51.160;4.146;2023-07-13T04:20:41;11.13;;;2.20;;
43345;SDS011;28937;51.160;4.146;2023-07-13T04:23:06;9.23;;;2.15;;
43345;SDS011;28937;51.160;4.146;2023-07-13T04:25:32;10.40;;;2.47;;
43345;SDS011;28937;51.160;4.146;2023-07-13T04:27:57;7.90;;;2.05;;
43345;SDS011;28937;51.160;4.146;2023-07-13T04:30:23;8.90;;;2.65;;
43345;SDS011;28937;51.160;4.146;2023-07-13T04:32:50;10.65;;;2.85;;
43345;SDS011;28937;51.160;4.146;2023-07-13T04:35:17;14.75;;;3.30;;
43345;SDS011;28937;51.160;4.146;2023-07-13T04:37:45;8.80;;;2.83;;
43345;SDS011;28937;51.160;4.146;2023-07-13T04:40:12;9.02;;;1.67;;
43345;SDS011;28937;51.160;4.146;2023-07-13T04:42:38;7.55;;;1.83;;
43345;SDS011;28937;51.160;4.146;2023-07-13T04:45:04;7.25;;;2.25;;
43345;SDS011;28937;51.160;4.146;2023-07-13T04:47:31;8.73;;;2.60;;
43345;SDS011;28937;51.160;4.146;2023-07-13T04:49:57;6.85;;;1.92;;
43345;SDS011;28937;51.160;4.146;2023-07-13T04:52:22;7.38;;;2.35;;
43345;SDS011;28937;51.160;4.146;2023-07-13T04:54:48;7.03;;;2.58;;
43345;SDS011;28937;51.160;4.146;2023-07-13T04:57:14;8.98;;;2.55;;
43345;SDS011;28937;51.160;4.146;2023-07-13T04:59:39;7.65;;;2.60;;
43345;SDS011;28937;51.160;4.146;2023-07-13T05:02:05;10.20;;;2.50;;
43345;SDS011;28937;51.160;4.146;2023-07-13T05:04:31;10.52;;;3.38;;
43345;SDS011;28937;51.160;4.146;2023-07-13T05:06:56;7.65;;;2.47;;
43345;SDS011;28937;51.160;4.146;2023-07-13T05:09:22;7.82;;;2.50;;
43345;SDS011;28937;51.160;4.146;2023-07-13T05:11:47;6.80;;;2.15;;
43345;SDS011;28937;51.160;4.146;2023-07-13T05:14:13;6.93;;;2.17;;
43345;SDS011;28937;51.160;4.146;2023-07-13T05:16:40;8.70;;;3.17;;
43345;SDS011;28937;51.160;4.146;2023-07-13T05:19:05;12.13;;;2.95;;
43345;SDS011;28937;51.160;4.146;2023-07-13T05:21:31;6.28;;;2.67;;
43345;SDS011;28937;51.160;4.146;2023-07-13T05:23:57;6.13;;;2.08;;
43345;SDS011;28937;51.160;4.146;2023-07-13T05:26:22;7.40;;;2.33;;
43345;SDS011;28937;51.160;4.146;2023-07-13T05:28:48;10.43;;;2.33;;
43345;SDS011;28937;51.160;4.146;2023-07-13T05:31:13;9.93;;;2.58;;
43345;SDS011;28937;51.160;4.146;2023-07-13T05:33:39;7.65;;;2.05;;
43345;SDS011;28937;51.160;4.146;2023-07-13T05:36:05;9.35;;;2.22;;
43345;SDS011;28937;51.160;4.146;2023-07-13T05:38:32;8.57;;;2.50;;
43345;SDS011;28937;51.160;4.146;2023-07-13T05:40:57;10.57;;;3.00;;
43345;SDS011;28937;51.160;4.146;2023-07-13T05:43:24;11.23;;;2.50;;
43345;SDS011;28937;51.160;4.146;2023-07-13T05:45:53;7.00;;;2.20;;
43345;SDS011;28937;51.160;4.146;2023-07-13T05:48:19;8.13;;;2.22;;
43345;SDS011;28937;51.160;4.146;2023-07-13T05:50:45;9.85;;;2.50;;
43345;SDS011;28937;51.160;4.146;2023-07-13T05:53:11;6.65;;;1.92;;
43345;SDS011;28937;51.160;4.146;2023-07-13T05:55:44;9.77;;;2.55;;
43345;SDS011;28937;51.160;4.146;2023-07-13T05:58:18;6.65;;;2.45;;
43345;SDS011;28937;51.160;4.146;2023-07-13T06:00:44;10.02;;;3.75;;
43345;SDS011;28937;51.160;4.146;2023-07-13T06:03:10;8.52;;;2.22;;
43345;SDS011;28937;51.160;4.146;2023-07-13T06:05:35;6.57;;;1.80;;
43345;SDS011;28937;51.160;4.146;2023-07-13T06:08:03;8.48;;;2.65;;
43345;SDS011;28937;51.160;4.146;2023-07-13T06:10:29;6.55;;;1.83;;
43345;SDS011;28937;51.160;4.146;2023-07-13T06:12:57;8.10;;;2.47;;
43345;SDS011;28937;51.160;4.146;2023-07-13T06:15:22;9.60;;;2.40;;
43345;SDS011;28937;51.160;4.146;2023-07-13T06:17:48;9.15;;;3.47;;
43345;SDS011;28937;51.160;4.146;2023-07-13T06:20:14;8.68;;;2.08;;
43345;SDS011;28937;51.160;4.146;2023-07-13T06:22:39;7.07;;;2.30;;
43345;SDS011;28937;51.160;4.146;2023-07-13T06:25:05;6.18;;;1.80;;
43345;SDS011;28937;51.160;4.146;2023-07-13T06:27:31;10.10;;;2.30;;
43345;SDS011;28937;51.160;4.146;2023-07-13T06:29:56;7.22;;;2.30;;
43345;SDS011;28937;51.160;4.146;2023-07-13T06:32:22;8.52;;;2.20;;
43345;SDS011;28937;51.160;4.146;2023-07-13T06:34:47;5.38;;;1.50;;
43345;SDS011;28937;51.160;4.146;2023-07-13T06:37:13;10.60;;;2.58;;
43345;SDS011;28937;51.160;4.146;2023-07-13T06:39:39;10.38;;;2.30;;
43345;SDS011;28937;51.160;4.146;2023-07-13T06:42:05;8.32;;;2.63;;
43345;SDS011;28937;51.160;4.146;2023-07-13T06:44:31;10.85;;;2.92;;
43345;SDS011;28937;51.160;4.146;2023-07-13T06:46:56;5.75;;;1.85;;
43345;SDS011;28937;51.160;4.146;2023-07-13T06:49:22;7.80;;;2.10;;
43345;SDS011;28937;51.160;4.146;2023-07-13T06:51:47;11.02;;;2.42;;
43345;SDS011;28937;51.160;4.146;2023-07-13T06:54:13;7.55;;;2.67;;
43345;SDS011;28937;51.160;4.146;2023-07-13T06:56:39;7.32;;;2.10;;
43345;SDS011;28937;51.160;4.146;2023-07-13T06:59:04;10.18;;;2.60;;
43345;SDS011;28937;51.160;4.146;2023-07-13T07:01:30;6.28;;;2.42;;
43345;SDS011;28937;51.160;4.146;2023-07-13T07:03:56;8.40;;;2.63;;
43345;SDS011;28937;51.160;4.146;2023-07-13T07:06:22;11.07;;;2.88;;
43345;SDS011;28937;51.160;4.146;2023-07-13T07:08:49;8.23;;;2.42;;
43345;SDS011;28937;51.160;4.146;2023-07-13T07:11:19;6.82;;;2.45;;
43345;SDS011;28937;51.160;4.146;2023-07-13T07:13:49;6.90;;;2.20;;
43345;SDS011;28937;51.160;4.146;2023-07-13T07:16:16;10.90;;;2.55;;
43345;SDS011;28937;51.160;4.146;2023-07-13T07:18:42;9.32;;;1.90;;
43345;SDS011;28937;51.160;4.146;2023-07-13T07:21:07;6.53;;;2.35;;
43345;SDS011;28937;51.160;4.146;2023-07-13T07:23:33;9.30;;;2.58;;
43345;SDS011;28937;51.160;4.146;2023-07-13T07:25:58;7.05;;;2.00;;
43345;SDS011;28937;51.160;4.146;2023-07-13T07:28:24;25.05;;;3.78;;
43345;SDS011;28937;51.160;4.146;2023-07-13T07:30:52;9.93;;;3.03;;
43345;SDS011;28937;51.160;4.146;2023-07-13T07:33:18;10.30;;;2.45;;
43345;SDS011;28937;51.160;4.146;2023-07-13T07:35:44;8.23;;;2.97;;
43345;SDS011;28937;51.160;4.146;2023-07-13T07:38:10;15.73;;;2.45;;
43345;SDS011;28937;51.160;4.146;2023-07-13T07:40:39;10.38;;;2.78;;
43345;SDS011;28937;51.160;4.146;2023-07-13T07:43:06;12.32;;;3.33;;
43345;SDS011;28937;51.160;4.146;2023-07-13T07:45:36;9.88;;;2.20;;
43345;SDS011;28937;51.160;4.146;2023-07-13T07:48:02;9.32;;;2.38;;
43345;SDS011;28937;51.160;4.146;2023-07-13T07:50:29;10.23;;;3.10;;
43345;SDS011;28937;51.160;4.146;2023-07-13T07:52:55;11.82;;;2.55;;
43345;SDS011;28937;51.160;4.146;2023-07-13T07:55:24;9.45;;;3.00;;
43345;SDS011;28937;51.160;4.146;2023-07-13T07:57:51;8.35;;;2.15;;
43345;SDS011;28937;51.160;4.146;2023-07-13T08:00:17;11.48;;;2.83;;
43345;SDS011;28937;51.160;4.146;2023-07-13T08:02:43;14.40;;;3.72;;
43345;SDS011;28937;51.160;4.146;2023-07-13T08:05:09;12.15;;;3.25;;
43345;SDS011;28937;51.160;4.146;2023-07-13T08:07:35;10.38;;;2.50;;
43345;SDS011;28937;51.160;4.146;2023-07-13T08:10:04;11.85;;;2.30;;
43345;SDS011;28937;51.160;4.146;2023-07-13T08:12:33;9.98;;;3.30;;
43345;SDS011;28937;51.160;4.146;2023-07-13T08:15:03;13.90;;;2.45;;
43345;SDS011;28937;51.160;4.146;2023-07-13T08:17:29;10.30;;;2.17;;
43345;SDS011;28937;51.160;4.146;2023-07-13T08:19:54;11.85;;;2.72;;
43345;SDS011;28937;51.160;4.146;2023-07-13T08:22:20;9.32;;;2.60;;
43345;SDS011;28937;51.160;4.146;2023-07-13T08:24:46;11.48;;;2.80;;
43345;SDS011;28937;51.160;4.146;2023-07-13T08:27:12;9.13;;;2.60;;
43345;SDS011;28937;51.160;4.146;2023-07-13T08:29:38;11.50;;;2.47;;
43345;SDS011;28937;51.160;4.146;2023-07-13T08:32:05;11.15;;;3.00;;
43345;SDS011;28937;51.160;4.146;2023-07-13T08:34:34;7.53;;;2.30;;
43345;SDS011;28937;51.160;4.146;2023-07-13T08:37:00;8.75;;;2.42;;
43345;SDS011;28937;51.160;4.146;2023-07-13T08:39:27;10.80;;;2.65;;
43345;SDS011;28937;51.160;4.146;2023-07-13T08:41:56;7.53;;;1.77;;
43345;SDS011;28937;51.160;4.146;2023-07-13T08:44:48;12.07;;;1.90;;
43345;SDS011;28937;51.160;4.146;2023-07-13T08:47:37;10.80;;;2.33;;
43345;SDS011;28937;51.160;4.146;2023-07-13T08:50:13;5.28;;;2.13;;
43345;SDS011;28937;51.160;4.146;2023-07-13T08:52:43;8.15;;;1.95;;
43345;SDS011;28937;51.160;4.146;2023-07-13T08:55:11;9.40;;;1.88;;
43345;SDS011;28937;51.160;4.146;2023-07-13T08:57:41;9.05;;;1.77;;
43345;SDS011;28937;51.160;4.146;2023-07-13T09:00:10;6.20;;;1.80;;
43345;SDS011;28937;51.160;4.146;2023-07-13T09:02:42;9.07;;;2.30;;
43345;SDS011;28937;51.160;4.146;2023-07-13T09:13:41;5.47;;;1.95;;
43345;SDS011;28937;51.160;4.146;2023-07-13T09:16:14;8.52;;;2.00;;
43345;SDS011;28937;51.160;4.146;2023-07-13T09:18:41;5.05;;;1.70;;
43345;SDS011;28937;51.160;4.146;2023-07-13T09:21:17;5.75;;;1.85;;
43345;SDS011;28937;51.160;4.146;2023-07-13T09:23:56;7.93;;;2.00;;
43345;SDS011;28937;51.160;4.146;2023-07-13T09:26:44;6.15;;;1.92;;
43345;SDS011;28937;51.160;4.146;2023-07-13T09:29:23;9.23;;;2.05;;
43345;SDS011;28937;51.160;4.146;2023-07-13T09:31:54;12.30;;;2.60;;
43345;SDS011;28937;51.160;4.146;2023-07-13T09:34:23;10.73;;;2.75;;
43345;SDS011;28937;51.160;4.146;2023-07-13T09:36:50;13.63;;;3.17;;
43345;SDS011;28937;51.160;4.146;2023-07-13T09:39:21;9.57;;;2.22;;
43345;SDS011;28937;51.160;4.146;2023-07-13T09:42:07;7.43;;;1.98;;
43345;SDS011;28937;51.160;4.146;2023-07-13T09:44:52;7.25;;;2.22;;
43345;SDS011;28937;51.160;4.146;2023-07-13T09:47:23;9.05;;;2.47;;
43345;SDS011;28937;51.160;4.146;2023-07-13T09:50:01;10.32;;;2.70;;
43345;SDS011;28937;51.160;4.146;2023-07-13T09:52:38;7.13;;;2.55;;
43345;SDS011;28937;51.160;4.146;2023-07-13T09:55:23;9.90;;;2.00;;
43345;SDS011;28937;51.160;4.146;2023-07-13T09:57:57;9.70;;;2.13;;
43345;SDS011;28937;51.160;4.146;2023-07-13T10:00:28;6.55;;;1.42;;
43345;SDS011;28937;51.160;4.146;2023-07-13T10:03:02;9.07;;;1.98;;
43345;SDS011;28937;51.160;4.146;2023-07-13T10:08:18;8.57;;;2.35;;
43345;SDS011;28937;51.160;4.146;2023-07-13T10:10:54;10.20;;;1.92;;
43345;SDS011;28937;51.160;4.146;2023-07-13T10:13:31;6.32;;;2.10;;
43345;SDS011;28937;51.160;4.146;2023-07-13T10:16:01;8.00;;;2.17;;
43345;SDS011;28937;51.160;4.146;2023-07-13T10:18:31;8.80;;;2.00;;
43345;SDS011;28937;51.160;4.146;2023-07-13T10:21:15;5.65;;;1.50;;
43345;SDS011;28937;51.160;4.146;2023-07-13T10:23:44;8.43;;;2.40;;
43345;SDS011;28937;51.160;4.146;2023-07-13T10:26:16;8.32;;;2.00;;
43345;SDS011;28937;51.160;4.146;2023-07-13T10:31:14;6.75;;;1.85;;
43345;SDS011;28937;51.160;4.146;2023-07-13T10:33:41;9.93;;;2.42;;
43345;SDS011;28937;51.160;4.146;2023-07-13T10:38:48;6.63;;;2.15;;
43345;SDS011;28937;51.160;4.146;2023-07-13T10:41:20;5.60;;;1.63;;
43345;SDS011;28937;51.160;4.146;2023-07-13T10:43:52;9.93;;;1.58;;
43345;SDS011;28937;51.160;4.146;2023-07-13T10:46:20;11.55;;;1.55;;
43345;SDS011;28937;51.160;4.146;2023-07-13T10:48:53;5.70;;;1.58;;
43345;SDS011;28937;51.160;4.146;2023-07-13T10:51:23;8.38;;;1.83;;
43345;SDS011;28937;51.160;4.146;2023-07-13T10:56:40;8.80;;;1.83;;
43345;SDS011;28937;51.160;4.146;2023-07-13T10:59:10;6.55;;;1.45;;
43345;SDS011;28937;51.160;4.146;2023-07-13T11:01:48;6.50;;;1.90;;
43345;SDS011;28937;51.160;4.146;2023-07-13T11:04:45;6.57;;;1.77;;
43345;SDS011;28937;51.160;4.146;2023-07-13T11:07:19;6.28;;;2.00;;
43345;SDS011;28937;51.160;4.146;2023-07-13T11:09:54;4.38;;;1.83;;
43345;SDS011;28937;51.160;4.146;2023-07-13T11:20:09;7.38;;;2.72;;
43345;SDS011;28937;51.160;4.146;2023-07-13T11:25:28;5.28;;;2.00;;
43345;SDS011;28937;51.160;4.146;2023-07-13T11:35:37;7.05;;;2.83;;
43345;SDS011;28937;51.160;4.146;2023-07-13T11:38:15;4.38;;;2.92;;
43345;SDS011;28937;51.160;4.146;2023-07-13T11:41:06;7.28;;;2.83;;
43345;SDS011;28937;51.160;4.146;2023-07-13T11:43:44;4.50;;;2.15;;
43345;SDS011;28937;51.160;4.146;2023-07-13T11:46:13;5.45;;;2.00;;
43345;SDS011;28937;51.160;4.146;2023-07-13T11:48:47;6.68;;;2.47;;
43345;SDS011;28937;51.160;4.146;2023-07-13T11:51:19;4.32;;;2.10;;
43345;SDS011;28937;51.160;4.146;2023-07-13T11:53:53;3.90;;;2.13;;
43345;SDS011;28937;51.160;4.146;2023-07-13T11:56:20;4.47;;;2.00;;
43345;SDS011;28937;51.160;4.146;2023-07-13T11:58:53;6.80;;;2.10;;
43345;SDS011;28937;51.160;4.146;2023-07-13T12:01:25;4.22;;;1.40;;
43345;SDS011;28937;51.160;4.146;2023-07-13T12:03:57;4.47;;;1.35;;
43345;SDS011;28937;51.160;4.146;2023-07-13T12:06:28;4.30;;;1.30;;
43345;SDS011;28937;51.160;4.146;2023-07-13T12:09:00;3.15;;;1.10;;
43345;SDS011;28937;51.160;4.146;2023-07-13T12:11:28;2.55;;;0.90;;
43345;SDS011;28937;51.160;4.146;2023-07-13T12:13:54;7.32;;;2.08;;
43345;SDS011;28937;51.160;4.146;2023-07-13T12:16:25;2.88;;;1.33;;
43345;SDS011;28937;51.160;4.146;2023-07-13T12:18:54;2.20;;;1.10;;
43345;SDS011;28937;51.160;4.146;2023-07-13T12:21:24;3.97;;;1.55;;
43345;SDS011;28937;51.160;4.146;2023-07-13T12:23:56;3.03;;;0.98;;
43345;SDS011;28937;51.160;4.146;2023-07-13T12:26:21;5.40;;;1.27;;
43345;SDS011;28937;51.160;4.146;2023-07-13T12:28:54;2.58;;;1.10;;
43345;SDS011;28937;51.160;4.146;2023-07-13T12:34:20;2.55;;;1.17;;
43345;SDS011;28937;51.160;4.146;2023-07-13T12:39:17;5.72;;;1.80;;
43345;SDS011;28937;51.160;4.146;2023-07-13T12:41:43;7.90;;;1.77;;
43345;SDS011;28937;51.160;4.146;2023-07-13T12:44:25;5.32;;;1.48;;
43345;SDS011;28937;51.160;4.146;2023-07-13T12:47:04;4.10;;;1.40;;
43345;SDS011;28937;51.160;4.146;2023-07-13T12:49:39;4.72;;;1.70;;
43345;SDS011;28937;51.160;4.146;2023-07-13T12:52:12;3.90;;;1.50;;
43345;SDS011;28937;51.160;4.146;2023-07-13T12:54:40;4.50;;;1.20;;
43345;SDS011;28937;51.160;4.146;2023-07-13T12:57:08;2.75;;;1.42;;
43345;SDS011;28937;51.160;4.146;2023-07-13T12:59:41;3.28;;;1.70;;
43345;SDS011;28937;51.160;4.146;2023-07-13T13:02:30;3.63;;;1.55;;
43345;SDS011;28937;51.160;4.146;2023-07-13T13:04:58;2.88;;;1.45;;
43345;SDS011;28937;51.160;4.146;2023-07-13T13:07:24;5.78;;;1.88;;
43345;SDS011;28937;51.160;4.146;2023-07-13T13:09:50;6.85;;;2.10;;
43345;SDS011;28937;51.160;4.146;2023-07-13T13:12:18;3.30;;;1.70;;
43345;SDS011;28937;51.160;4.146;2023-07-13T13:14:47;5.10;;;1.52;;
43345;SDS011;28937;51.160;4.146;2023-07-13T13:17:20;3.25;;;1.38;;
43345;SDS011;28937;51.160;4.146;2023-07-13T13:19:49;5.47;;;1.63;;
43345;SDS011;28937;51.160;4.146;2023-07-13T13:22:18;3.15;;;1.35;;
43345;SDS011;28937;51.160;4.146;2023-07-13T13:24:43;3.05;;;1.40;;
43345;SDS011;28937;51.160;4.146;2023-07-13T13:27:21;4.15;;;1.52;;
43345;SDS011;28937;51.160;4.146;2023-07-13T13:29:49;3.08;;;1.40;;
43345;SDS011;28937;51.160;4.146;2023-07-13T13:32:17;5.35;;;1.55;;
43345;SDS011;28937;51.160;4.146;2023-07-13T13:34:44;2.63;;;1.17;;
43345;SDS011;28937;51.160;4.146;2023-07-13T13:37:17;3.90;;;1.58;;
43345;SDS011;28937;51.160;4.146;2023-07-13T13:39:45;6.40;;;1.98;;
43345;SDS011;28937;51.160;4.146;2023-07-13T13:42:11;5.70;;;2.20;;
43345;SDS011;28937;51.160;4.146;2023-07-13T13:44:37;5.30;;;2.40;;
43345;SDS011;28937;51.160;4.146;2023-07-13T13:47:03;3.63;;;1.48;;
43345;SDS011;28937;51.160;4.146;2023-07-13T13:49:29;4.65;;;1.42;;
43345;SDS011;28937;51.160;4.146;2023-07-13T13:51:55;3.40;;;1.60;;
43345;SDS011;28937;51.160;4.146;2023-07-13T13:54:23;11.80;;;1.80;;
43345;SDS011;28937;51.160;4.146;2023-07-13T13:56:50;10.27;;;1.83;;
43345;SDS011;28937;51.160;4.146;2023-07-13T13:59:17;4.45;;;1.67;;
43345;SDS011;28937;51.160;4.146;2023-07-13T14:01:44;5.22;;;2.17;;
43345;SDS011;28937;51.160;4.146;2023-07-13T14:04:15;3.33;;;1.27;;
43345;SDS011;28937;51.160;4.146;2023-07-13T14:06:46;4.63;;;1.50;;
43345;SDS011;28937;51.160;4.146;2023-07-13T14:09:14;8.48;;;1.55;;
43345;SDS011;28937;51.160;4.146;2023-07-13T14:11:41;4.28;;;1.33;;
43345;SDS011;28937;51.160;4.146;2023-07-13T14:14:09;3.60;;;1.27;;
43345;SDS011;28937;51.160;4.146;2023-07-13T14:16:40;2.42;;;1.30;;
43345;SDS011;28937;51.160;4.146;2023-07-13T14:19:07;4.97;;;1.40;;
43345;SDS011;28937;51.160;4.146;2023-07-13T14:21:36;3.55;;;1.40;;
43345;SDS011;28937;51.160;4.146;2023-07-13T14:24:02;4.13;;;1.63;;
43345;SDS011;28937;51.160;4.146;2023-07-13T14:26:28;2.45;;;1.20;;
43345;SDS011;28937;51.160;4.146;2023-07-13T14:28:57;7.03;;;1.65;;
43345;SDS011;28937;51.160;4.146;2023-07-13T14:31:24;2.40;;;1.17;;
43345;SDS011;28937;51.160;4.146;2023-07-13T14:33:50;4.53;;;1.77;;
43345;SDS011;28937;51.160;4.146;2023-07-13T14:38:52;5.05;;;1.60;;
43345;SDS011;28937;51.160;4.146;2023-07-13T14:41:19;3.70;;;1.40;;
43345;SDS011;28937;51.160;4.146;2023-07-13T14:43:45;4.88;;;1.40;;
43345;SDS011;28937;51.160;4.146;2023-07-13T14:46:19;2.60;;;1.33;;
43345;SDS011;28937;51.160;4.146;2023-07-13T14:48:56;3.63;;;1.25;;
43345;SDS011;28937;51.160;4.146;2023-07-13T14:51:26;5.38;;;2.03;;
43345;SDS011;28937;51.160;4.146;2023-07-13T14:53:51;3.17;;;1.63;;
43345;SDS011;28937;51.160;4.146;2023-07-13T14:56:17;4.10;;;1.67;;
43345;SDS011;28937;51.160;4.146;2023-07-13T14:58:43;4.80;;;1.35;;
43345;SDS011;28937;51.160;4.146;2023-07-13T15:01:11;3.45;;;1.30;;
43345;SDS011;28937;51.160;4.146;2023-07-13T15:03:41;2.83;;;1.45;;
43345;SDS011;28937;51.160;4.146;2023-07-13T15:06:10;3.72;;;1.50;;
43345;SDS011;28937;51.160;4.146;2023-07-13T15:08:37;4.05;;;1.45;;
43345;SDS011;28937;51.160;4.146;2023-07-13T15:11:05;4.60;;;1.33;;
43345;SDS011;28937;51.160;4.146;2023-07-13T15:13:30;4.50;;;1.38;;
43345;SDS011;28937;51.160;4.146;2023-07-13T15:15:56;3.63;;;1.73;;
43345;SDS011;28937;51.160;4.146;2023-07-13T15:18:22;6.55;;;1.92;;
43345;SDS011;28937;51.160;4.146;2023-07-13T15:20:50;4.43;;;1.45;;
43345;SDS011;28937;51.160;4.146;2023-07-13T15:23:18;3.45;;;1.70;;
43345;SDS011;28937;51.160;4.146;2023-07-13T15:25:44;3.35;;;1.60;;
43345;SDS011;28937;51.160;4.146;2023-07-13T15:28:10;6.90;;;1.55;;
43345;SDS011;28937;51.160;4.146;2023-07-13T15:30:47;3.97;;;1.83;;
43345;SDS011;28937;51.160;4.146;2023-07-13T15:33:18;3.65;;;1.52;;
43345;SDS011;28937;51.160;4.146;2023-07-13T15:35:52;5.85;;;2.20;;
43345;SDS011;28937;51.160;4.146;2023-07-13T15:38:22;5.95;;;1.70;;
43345;SDS011;28937;51.160;4.146;2023-07-13T15:40:50;4.25;;;1.75;;